Time;durP1;ratioP1;P1;durP2;ratioP2;P2;SDS_P1;SDS_P2;PMS_P1;PMS_P2;Temp;Humidity;BMP_temperature;BMP_pressure;BME280_temperature;BME280_humidity;BME280_pressure;Samples;Min_cycle;Max_cycle;Signal;HPM_P1;HPM_P2
2023/06/25 04:04:46;;;;;;;3.43;2.67;;;16.50;99.90;;;;;;5872575;23;20991;-60
2023/06/25 04:07:11;;;;;;;2.77;2.47;;;16.60;99.90;;;;;;4995436;28;20450;-60
2023/06/25 04:09:37;;;;;;;2.77;2.50;;;16.60;99.90;;;;;;4996986;28;20179;-60
2023/06/25 04:12:03;;;;;;;4.37;3.37;;;16.70;99.90;;;;;;4997180;28;20274;-60
2023/06/25 04:14:28;;;;;;;3.20;3.00;;;16.80;99.90;;;;;;4996550;28;20222;-60
2023/06/25 04:16:54;;;;;;;3.90;3.23;;;17.00;99.90;;;;;;4996957;28;20179;-60
2023/06/25 04:19:19;;;;;;;3.47;3.17;;;17.20;99.90;;;;;;4996853;28;20723;-60
2023/06/25 04:21:45;;;;;;;2.87;2.67;;;17.40;99.90;;;;;;4997132;28;20212;-61
2023/06/25 04:24:10;;;;;;;3.57;3.27;;;17.50;99.90;;;;;;4996943;28;20180;-60
2023/06/25 04:26:36;;;;;;;3.03;2.77;;;17.60;99.90;;;;;;4996868;28;20185;-60
2023/06/25 04:29:02;;;;;;;3.53;3.23;;;17.80;99.90;;;;;;4995758;28;20582;-60
2023/06/25 04:31:28;;;;;;;2.97;2.77;;;18.00;99.90;;;;;;4996964;28;20206;-60
2023/06/25 04:33:53;;;;;;;2.53;2.33;;;18.20;99.90;;;;;;4995835;28;20509;-61
2023/06/25 04:36:22;;;;;;;2.67;2.27;;;18.20;99.90;;;;;;4996510;28;20185;-60
2023/06/25 04:38:48;;;;;;;2.73;2.53;;;18.30;99.90;;;;;;4996735;28;20187;-60
2023/06/25 04:41:13;;;;;;;3.50;3.23;;;18.30;99.90;;;;;;4996321;28;20473;-61
2023/06/25 04:43:39;;;;;;;4.10;3.10;;;18.50;99.90;;;;;;4995558;28;20186;-61
2023/06/25 04:46:05;;;;;;;3.53;2.80;;;18.70;99.90;;;;;;4996054;28;20242;-61
2023/06/25 04:48:30;;;;;;;3.73;3.43;;;19.00;99.90;;;;;;4996139;28;20680;-61
2023/06/25 04:50:56;;;;;;;4.10;3.80;;;19.20;99.90;;;;;;4995978;28;20175;-59
2023/06/25 04:53:21;;;;;;;3.23;3.00;;;19.20;99.90;;;;;;4995318;28;20250;-60
2023/06/25 04:55:47;;;;;;;2.70;2.50;;;19.30;99.90;;;;;;4995540;28;20187;-60
2023/06/25 04:58:12;;;;;;;2.83;2.37;;;19.30;99.90;;;;;;4996150;28;20176;-61
2023/06/25 05:00:38;;;;;;;2.97;2.77;;;19.40;99.90;;;;;;4995962;28;20171;-61
2023/06/25 05:03:03;;;;;;;3.60;3.30;;;19.50;99.90;;;;;;4996571;28;20168;-61
2023/06/25 05:05:29;;;;;;;3.07;2.77;;;19.50;99.90;;;;;;4995006;28;20221;-60
2023/06/25 05:07:55;;;;;;;2.73;2.53;;;19.50;99.90;;;;;;4995983;28;20282;-61
2023/06/25 05:10:21;;;;;;;3.13;2.83;;;19.50;99.90;;;;;;4996053;28;20548;-61
2023/06/25 05:12:47;;;;;;;2.50;2.30;;;19.50;99.90;;;;;;4995899;28;20171;-61
2023/06/25 05:15:12;;;;;;;2.70;2.27;;;19.40;99.90;;;;;;4995006;28;20462;-61
2023/06/25 05:17:38;;;;;;;2.67;2.47;;;19.40;99.90;;;;;;4995831;28;20230;-61
2023/06/25 05:20:04;;;;;;;2.23;2.03;;;19.40;99.90;;;;;;4995055;28;20179;-61
2023/06/25 05:22:30;;;;;;;3.27;2.83;;;19.40;99.90;;;;;;4996063;28;20542;-61
2023/06/25 05:24:56;;;;;;;2.00;1.90;;;19.50;99.90;;;;;;4995226;28;20475;-61
2023/06/25 05:27:21;;;;;;;2.67;2.43;;;19.60;99.90;;;;;;4995605;28;20575;-61
2023/06/25 05:29:47;;;;;;;2.77;2.60;;;19.70;99.90;;;;;;4995570;28;20179;-61
2023/06/25 05:32:12;;;;;;;4.47;2.40;;;19.80;99.70;;;;;;4995220;28;20184;-60
2023/06/25 05:34:38;;;;;;;2.77;2.30;;;20.00;99.30;;;;;;4994487;28;20215;-60
2023/06/25 05:37:04;;;;;;;2.70;2.40;;;20.40;98.90;;;;;;4995311;28;20171;-61
2023/06/25 05:39:29;;;;;;;2.23;2.13;;;21.10;97.90;;;;;;4995312;28;20172;-60
2023/06/25 05:41:57;;;;;;;3.40;3.10;;;21.80;96.50;;;;;;4995180;28;20756;-61
2023/06/25 05:44:22;;;;;;;2.10;2.00;;;22.30;95.20;;;;;;4994684;28;21989;-61
2023/06/25 05:46:48;;;;;;;2.60;2.40;;;22.40;94.40;;;;;;4995173;28;20546;-62
2023/06/25 05:49:14;;;;;;;2.97;2.20;;;22.40;94.00;;;;;;4994962;28;20668;-62
2023/06/25 05:51:39;;;;;;;2.70;2.50;;;22.40;94.10;;;;;;4995032;28;20182;-61
2023/06/25 05:54:05;;;;;;;2.57;2.37;;;22.40;93.60;;;;;;4993164;28;20620;-61
2023/06/25 05:56:30;;;;;;;3.90;3.10;;;22.40;93.00;;;;;;4994661;28;20175;-61
2023/06/25 05:58:56;;;;;;;3.37;2.50;;;22.30;93.00;;;;;;4993525;28;20180;-61
2023/06/25 06:01:22;;;;;;;2.27;2.13;;;22.40;92.40;;;;;;4993976;28;20234;-61
2023/06/25 06:03:47;;;;;;;2.80;2.47;;;22.40;91.70;;;;;;4992373;28;20181;-61
2023/06/25 06:06:13;;;;;;;2.83;2.63;;;22.30;91.50;;;;;;4994623;28;20211;-61
2023/06/25 06:08:39;;;;;;;2.60;2.40;;;22.30;91.60;;;;;;4995114;28;20445;-61
2023/06/25 06:11:04;;;;;;;2.70;2.50;;;22.30;91.80;;;;;;4994866;28;20641;-61
2023/06/25 06:13:30;;;;;;;2.43;2.20;;;22.40;91.80;;;;;;4992870;28;20712;-59
2023/06/25 06:15:56;;;;;;;2.37;1.93;;;22.50;91.90;;;;;;4994341;28;20192;-62
2023/06/25 06:18:21;;;;;;;2.23;2.03;;;22.50;91.70;;;;;;4994361;28;20185;-62
2023/06/25 06:20:47;;;;;;;3.47;2.97;;;22.50;91.40;;;;;;4993207;28;20549;-62
2023/06/25 06:23:12;;;;;;;2.03;1.93;;;22.60;91.30;;;;;;4994453;28;20194;-61
2023/06/25 06:25:38;;;;;;;2.70;2.50;;;22.60;90.70;;;;;;4994255;28;20677;-61
2023/06/25 06:28:04;;;;;;;2.30;2.10;;;22.70;90.70;;;;;;4994094;28;20212;-61
2023/06/25 06:30:29;;;;;;;3.67;2.90;;;22.70;90.90;;;;;;4994943;28;20186;-61
2023/06/25 06:32:55;;;;;;;2.67;2.47;;;22.90;90.20;;;;;;4994146;28;20347;-61
2023/06/25 06:35:20;;;;;;;3.03;2.70;;;23.10;89.90;;;;;;4993877;28;20226;-60
2023/06/25 06:37:46;;;;;;;3.17;2.93;;;23.10;89.90;;;;;;4994269;28;20192;-60
2023/06/25 06:40:12;;;;;;;2.90;2.67;;;23.10;88.70;;;;;;4994248;28;20662;-61
2023/06/25 06:42:37;;;;;;;2.50;1.97;;;23.10;87.40;;;;;;4992610;28;20592;-61
2023/06/25 06:45:03;;;;;;;2.30;2.10;;;23.20;87.40;;;;;;4993614;28;20336;-61
2023/06/25 06:47:29;;;;;;;2.60;2.40;;;23.20;85.60;;;;;;4994222;28;20179;-61
2023/06/25 06:49:54;;;;;;;2.83;2.50;;;23.40;86.00;;;;;;4992807;28;20181;-60
2023/06/25 06:52:26;;;;;;;2.50;2.30;;;23.40;87.30;;;;;;4994080;28;20254;-62
2023/06/25 06:54:52;;;;;;;4.17;3.50;;;23.50;87.60;;;;;;4993425;28;20207;-59
2023/06/25 06:57:18;;;;;;;2.43;2.23;;;23.60;87.50;;;;;;4993595;28;20422;-61
2023/06/25 06:59:45;;;;;;;3.17;2.43;;;23.60;86.20;;;;;;4992523;28;20195;-62
2023/06/25 07:02:11;;;;;;;2.73;2.50;;;23.70;83.70;;;;;;4993800;28;20175;-61
2023/06/25 07:04:37;;;;;;;3.07;2.60;;;23.70;83.60;;;;;;4993528;28;20442;-61
2023/06/25 07:07:03;;;;;;;3.17;2.87;;;23.80;83.70;;;;;;4993617;28;20433;-61
2023/06/25 07:09:28;;;;;;;2.70;2.50;;;23.80;83.00;;;;;;4993912;28;20422;-62
2023/06/25 07:11:54;;;;;;;4.30;3.00;;;23.90;83.60;;;;;;4993413;28;20208;-62
2023/06/25 07:14:20;;;;;;;2.50;2.30;;;24.00;82.20;;;;;;4993129;28;20191;-61
2023/06/25 07:16:45;;;;;;;2.77;2.53;;;24.00;83.30;;;;;;4997062;28;20218;-62
2023/06/25 07:19:11;;;;;;;2.83;2.63;;;24.10;82.50;;;;;;4997878;28;20185;-61
2023/06/25 07:21:37;;;;;;;3.17;2.80;;;24.20;81.10;;;;;;4997849;28;20433;-62
2023/06/25 07:24:03;;;;;;;3.57;3.27;;;24.30;80.30;;;;;;4997167;28;20724;-61
2023/06/25 07:26:29;;;;;;;3.37;3.07;;;24.50;78.90;;;;;;4997786;28;20504;-59
2023/06/25 07:28:55;;;;;;;3.33;3.00;;;24.80;78.40;;;;;;4997639;28;20626;-61
2023/06/25 07:31:20;;;;;;;3.20;3.00;;;25.20;77.50;;;;;;4997550;28;20175;-60
2023/06/25 07:33:46;;;;;;;3.13;2.83;;;25.80;75.30;;;;;;4997254;28;20433;-61
2023/06/25 07:36:12;;;;;;;3.93;3.63;;;26.40;72.90;;;;;;4997381;28;20193;-61
2023/06/25 07:38:37;;;;;;;3.80;3.20;;;27.00;71.10;;;;;;4997304;28;20164;-62
2023/06/25 07:41:03;;;;;;;3.53;3.23;;;27.90;68.60;;;;;;4997654;28;20167;-60
2023/06/25 07:43:29;;;;;;;4.47;3.60;;;29.00;65.80;;;;;;4996956;28;20180;-62
2023/06/25 07:45:54;;;;;;;3.70;3.20;;;30.00;60.70;;;;;;4997192;28;20231;-62
2023/06/25 07:48:20;;;;;;;3.00;2.80;;;31.00;58.40;;;;;;4997352;28;20203;-61
2023/06/25 07:50:45;;;;;;;4.07;3.67;;;31.90;57.50;;;;;;4997363;28;20172;-61
2023/06/25 07:53:11;;;;;;;4.27;3.30;;;33.00;55.20;;;;;;4996815;28;20514;-60
2023/06/25 07:55:41;;;;;;;3.40;3.10;;;33.50;53.80;;;;;;4996441;28;20192;-62
2023/06/25 07:58:07;;;;;;;3.50;3.20;;;34.20;52.20;;;;;;4996973;28;20199;-62
2023/06/25 08:00:36;;;;;;;4.53;4.13;;;34.70;50.60;;;;;;4997001;28;20405;-63
2023/06/25 08:03:03;;;;;;;4.60;4.20;;;34.80;49.80;;;;;;4997159;28;20430;-61
2023/06/25 08:05:28;;;;;;;3.80;3.50;;;34.70;50.10;;;;;;4996662;28;20489;-61
2023/06/25 08:07:56;;;;;;;4.10;3.70;;;35.10;49.50;;;;;;4995559;28;20410;-60
2023/06/25 08:10:22;;;;;;;3.70;3.40;;;35.50;49.60;;;;;;4996274;28;20179;-63
2023/06/25 08:12:48;;;;;;;3.90;3.60;;;36.00;47.30;;;;;;4996812;28;20856;-61
2023/06/25 08:15:13;;;;;;;3.90;3.60;;;36.20;47.60;;;;;;4996362;28;20541;-60
2023/06/25 08:17:39;;;;;;;4.03;3.73;;;35.90;46.20;;;;;;4996957;28;20587;-62
2023/06/25 08:20:05;;;;;;;4.80;3.70;;;35.70;46.70;;;;;;4996547;28;20641;-61
2023/06/25 08:22:31;;;;;;;4.50;4.10;;;35.80;46.60;;;;;;4994876;28;20172;-61
2023/06/25 08:24:56;;;;;;;4.60;4.20;;;35.80;46.50;;;;;;4996129;28;20461;-61
2023/06/25 08:27:22;;;;;;;3.90;3.60;;;35.80;46.70;;;;;;4995880;28;20175;-61
2023/06/25 08:29:47;;;;;;;3.57;3.27;;;35.80;46.20;;;;;;4996328;28;20209;-61
2023/06/25 08:32:13;;;;;;;4.23;3.77;;;36.10;46.50;;;;;;4996578;28;20591;-62
2023/06/25 08:34:40;;;;;;;4.00;3.60;;;36.20;46.20;;;;;;4996025;28;20227;-61
2023/06/25 08:37:05;;;;;;;4.03;3.63;;;36.20;45.80;;;;;;4996360;28;20178;-62
2023/06/25 08:39:31;;;;;;;3.97;3.67;;;36.30;46.30;;;;;;4996492;28;20415;-62
2023/06/25 08:41:56;;;;;;;3.60;3.30;;;36.70;45.80;;;;;;4995874;28;20190;-62
2023/06/25 08:44:22;;;;;;;4.13;3.73;;;37.20;44.70;;;;;;4995615;28;20549;-62
2023/06/25 08:46:49;;;;;;;3.80;3.50;;;37.60;44.00;;;;;;4996154;28;20180;-62
2023/06/25 08:49:16;;;;;;;3.40;3.20;;;37.80;43.90;;;;;;4996140;28;20262;-62
2023/06/25 08:51:42;;;;;;;3.53;3.23;;;38.10;43.90;;;;;;4996156;28;20494;-62
2023/06/25 08:54:08;;;;;;;3.70;3.40;;;37.90;42.80;;;;;;4994257;28;21012;-60
2023/06/25 08:56:34;;;;;;;3.80;3.50;;;37.80;42.60;;;;;;4995698;28;20437;-62
2023/06/25 08:59:00;;;;;;;3.47;3.17;;;37.80;42.50;;;;;;4996030;28;20419;-63
2023/06/25 09:01:26;;;;;;;3.60;3.30;;;37.60;42.30;;;;;;4996083;28;20500;-62
2023/06/25 09:03:52;;;;;;;3.80;3.50;;;37.60;43.10;;;;;;4995555;28;20262;-62
2023/06/25 09:06:18;;;;;;;3.30;3.07;;;37.60;42.50;;;;;;4995764;28;20574;-63
2023/06/25 09:08:44;;;;;;;3.70;3.40;;;38.00;42.10;;;;;;4995807;28;20529;-62
2023/06/25 09:11:10;;;;;;;3.33;3.13;;;38.10;41.20;;;;;;4995662;28;20179;-62
2023/06/25 09:13:38;;;;;;;3.60;3.33;;;38.20;41.50;;;;;;4995438;28;20207;-62
2023/06/25 09:16:06;;;;;;;3.70;3.40;;;38.40;41.20;;;;;;4995821;28;20506;-62
2023/06/25 09:18:32;;;;;;;3.40;3.20;;;39.00;41.20;;;;;;4995667;28;20438;-61
2023/06/25 09:21:05;;;;;;;4.00;3.60;;;39.50;39.80;;;;;;4995580;28;20414;-62
2023/06/25 09:23:31;;;;;;;4.20;3.80;;;39.30;39.50;;;;;;4995278;28;20202;-61
2023/06/25 09:25:57;;;;;;;3.70;3.40;;;38.70;40.20;;;;;;4994987;28;20609;-62
2023/06/25 09:28:22;;;;;;;3.80;3.50;;;38.70;40.00;;;;;;4995177;28;20545;-62
2023/06/25 09:30:48;;;;;;;4.20;3.83;;;38.70;39.50;;;;;;4995365;28;20649;-62
2023/06/25 09:33:15;;;;;;;4.23;3.83;;;38.80;40.00;;;;;;4995030;28;20175;-62
2023/06/25 09:35:40;;;;;;;3.70;3.40;;;39.10;39.30;;;;;;4993582;28;20184;-62
2023/06/25 09:38:07;;;;;;;4.60;4.27;;;39.10;38.90;;;;;;4994787;28;20550;-62
2023/06/25 09:40:32;;;;;;;3.90;3.60;;;39.20;38.90;;;;;;4994449;28;20195;-61
2023/06/25 09:42:59;;;;;;;4.10;3.77;;;39.00;37.80;;;;;;4994842;28;20415;-62
2023/06/25 09:45:27;;;;;;;3.70;3.40;;;39.00;36.90;;;;;;4994379;28;20206;-62
2023/06/25 09:47:56;;;;;;;3.87;3.57;;;39.30;36.90;;;;;;4995000;28;20403;-62
2023/06/25 09:50:27;;;;;;;3.40;3.20;;;39.30;36.50;;;;;;4994978;28;20413;-62
2023/06/25 09:52:57;;;;;;;3.60;3.30;;;39.40;36.30;;;;;;4994802;28;20413;-63
2023/06/25 09:55:25;;;;;;;4.00;3.70;;;39.50;36.90;;;;;;4994100;28;20441;-62
2023/06/25 09:57:52;;;;;;;4.40;4.10;;;39.40;36.50;;;;;;4994894;28;20461;-63
2023/06/25 10:00:20;;;;;;;4.93;3.70;;;39.10;36.80;;;;;;4994741;28;20421;-62
2023/06/25 10:02:46;;;;;;;4.63;4.23;;;39.40;37.70;;;;;;4994166;28;20418;-62
2023/06/25 10:05:12;;;;;;;3.63;3.40;;;39.70;36.90;;;;;;4994013;28;20916;-62
2023/06/25 10:07:38;;;;;;;3.30;3.00;;;39.90;36.50;;;;;;4993189;28;20656;-62
2023/06/25 10:10:04;;;;;;;3.90;3.60;;;40.10;36.70;;;;;;4994833;28;20192;-61
2023/06/25 10:12:35;;;;;;;4.00;3.70;;;40.00;36.10;;;;;;4994528;28;20484;-62
2023/06/25 10:15:03;;;;;;;4.00;3.60;;;39.90;35.70;;;;;;4993976;28;20569;-62
2023/06/25 10:17:31;;;;;;;4.57;4.27;;;39.60;35.50;;;;;;4994139;28;20463;-62
2023/06/25 10:19:59;;;;;;;4.10;3.80;;;39.30;36.00;;;;;;4994532;28;20410;-63
2023/06/25 10:22:26;;;;;;;4.30;4.00;;;39.20;35.90;;;;;;4994266;28;20415;-63
2023/06/25 10:24:53;;;;;;;3.70;3.40;;;38.60;36.90;;;;;;4993775;28;20474;-63
2023/06/25 10:27:24;;;;;;;3.77;3.47;;;38.50;35.70;;;;;;4994306;28;20418;-61
2023/06/25 10:29:51;;;;;;;4.00;3.70;;;38.70;35.10;;;;;;4994361;28;20438;-62
2023/06/25 10:32:27;;;;;;;4.03;3.73;;;39.00;35.30;;;;;;4993993;28;20778;-61
2023/06/25 10:35:03;;;;;;;3.87;3.47;;;39.20;35.80;;;;;;4993948;28;20437;-63
2023/06/25 10:37:34;;;;;;;3.10;2.90;;;39.00;34.90;;;;;;4994441;28;20437;-62
2023/06/25 10:40:07;;;;;;;3.70;3.37;;;38.80;35.90;;;;;;4994126;28;20419;-63
2023/06/25 10:42:35;;;;;;;3.93;3.53;;;38.60;35.30;;;;;;4993196;28;20403;-62
2023/06/25 10:45:01;;;;;;;3.53;3.23;;;38.70;35.50;;;;;;4993629;28;20466;-62
2023/06/25 10:47:27;;;;;;;3.40;3.10;;;38.50;35.10;;;;;;4993899;28;20485;-61
2023/06/25 10:49:53;;;;;;;3.70;3.40;;;38.30;35.00;;;;;;4993693;28;20415;-64
2023/06/25 10:52:18;;;;;;;3.30;3.00;;;38.00;35.40;;;;;;4994258;28;20167;-62
2023/06/25 10:54:44;;;;;;;3.50;3.20;;;37.80;35.20;;;;;;4993130;28;20257;-62
2023/06/25 10:57:15;;;;;;;2.87;2.67;;;37.60;35.60;;;;;;4994383;28;20538;-62
2023/06/25 10:59:44;;;;;;;3.20;2.90;;;37.80;35.80;;;;;;4994057;28;20180;-63
2023/06/25 11:02:20;;;;;;;3.53;3.23;;;37.50;36.50;;;;;;4994509;28;20503;-63
2023/06/25 11:04:58;;;;;;;3.20;2.93;;;37.40;36.30;;;;;;4993337;28;20473;-62
2023/06/25 11:07:25;;;;;;;3.27;2.97;;;37.10;35.70;;;;;;4993698;28;20426;-62
2023/06/25 11:09:54;;;;;;;3.23;3.00;;;37.00;36.00;;;;;;4993582;28;20419;-61
2023/06/25 11:12:20;;;;;;;3.40;3.20;;;36.70;36.40;;;;;;4994003;28;20381;-62
2023/06/25 11:14:45;;;;;;;4.27;3.87;;;36.20;36.90;;;;;;4992144;28;20470;-62
2023/06/25 11:17:14;;;;;;;3.97;3.40;;;35.20;37.80;;;;;;4993596;28;20175;-62
2023/06/25 11:19:40;;;;;;;3.10;2.80;;;34.40;37.70;;;;;;4993628;28;20211;-61
2023/06/25 11:22:09;;;;;;;5.23;4.73;;;33.80;39.10;;;;;;4993647;28;20497;-62
2023/06/25 11:24:36;;;;;;;4.10;3.63;;;33.30;39.30;;;;;;4993396;28;20261;-62
2023/06/25 11:27:02;;;;;;;2.60;2.37;;;32.80;38.90;;;;;;4993644;28;20407;-62
2023/06/25 11:29:39;;;;;;;3.50;2.60;;;32.40;39.90;;;;;;4993720;28;20729;-61
2023/06/25 11:32:08;;;;;;;3.97;3.60;;;32.00;40.00;;;;;;4993671;28;20393;-61
2023/06/25 11:34:34;;;;;;;3.30;3.00;;;31.60;40.30;;;;;;4993182;28;20797;-63
2023/06/25 11:37:14;;;;;;;3.70;2.93;;;31.30;41.60;;;;;;4993969;28;20395;-63
2023/06/25 11:39:47;;;;;;;3.63;3.33;;;30.80;42.80;;;;;;4993787;28;20420;-60
2023/06/25 11:42:18;;;;;;;2.23;2.03;;;30.50;43.00;;;;;;4993561;28;20416;-62
2023/06/25 11:44:45;;;;;;;3.20;2.50;;;30.20;43.50;;;;;;4992964;28;20486;-63
2023/06/25 11:47:13;;;;;;;2.63;2.43;;;30.00;42.70;;;;;;4993296;28;20393;-60
2023/06/25 11:49:39;;;;;;;2.50;2.30;;;29.90;42.10;;;;;;4993855;28;20414;-62
2023/06/25 11:52:05;;;;;;;3.20;2.70;;;29.90;42.40;;;;;;4993569;28;20460;-62
2023/06/25 11:54:31;;;;;;;2.90;2.70;;;29.90;41.60;;;;;;4993090;28;20413;-61
2023/06/25 11:56:57;;;;;;;3.13;2.70;;;29.90;41.90;;;;;;4993677;28;20426;-61
2023/06/25 11:59:22;;;;;;;2.80;2.60;;;29.80;42.10;;;;;;4993904;28;20172;-61
2023/06/25 12:01:49;;;;;;;3.57;2.90;;;29.80;41.30;;;;;;4993433;28;20606;-61
2023/06/25 12:04:14;;;;;;;2.33;2.13;;;29.70;41.00;;;;;;4996585;28;20290;-61
2023/06/25 12:06:40;;;;;;;2.60;2.13;;;29.70;41.80;;;;;;4996978;28;20484;-61
2023/06/25 12:09:06;;;;;;;2.70;2.50;;;29.70;42.40;;;;;;4996770;28;20207;-61
2023/06/25 12:11:31;;;;;;;2.73;2.53;;;29.60;42.90;;;;;;4996275;28;20176;-62
2023/06/25 12:13:57;;;;;;;2.93;2.60;;;29.60;42.80;;;;;;4996793;28;20182;-62
2023/06/25 12:16:23;;;;;;;4.03;3.63;;;29.50;42.90;;;;;;4996597;28;20195;-61
2023/06/25 12:18:48;;;;;;;4.10;3.70;;;29.50;43.60;;;;;;4996717;28;20180;-62
2023/06/25 12:21:14;;;;;;;4.70;3.50;;;29.60;44.20;;;;;;4996755;28;20171;-61
2023/06/25 12:23:40;;;;;;;2.83;2.63;;;29.70;43.20;;;;;;4996056;28;20755;-61
2023/06/25 12:26:05;;;;;;;3.10;2.27;;;29.70;43.30;;;;;;4996388;28;20450;-62
2023/06/25 12:28:31;;;;;;;3.63;2.80;;;29.80;43.80;;;;;;4996357;28;20168;-62
2023/06/25 12:30:56;;;;;;;3.40;3.07;;;29.80;43.80;;;;;;4996517;28;20633;-62
2023/06/25 12:33:22;;;;;;;3.03;2.50;;;29.80;43.10;;;;;;4996068;28;20175;-61
2023/06/25 12:35:48;;;;;;;2.93;2.73;;;29.70;43.00;;;;;;4996551;28;20592;-61
2023/06/25 12:38:13;;;;;;;3.47;2.80;;;29.70;43.80;;;;;;4996275;28;20171;-61
2023/06/25 12:40:39;;;;;;;2.40;2.20;;;29.70;43.60;;;;;;4996532;28;20526;-61
2023/06/25 12:43:04;;;;;;;2.20;2.00;;;29.80;43.60;;;;;;4996413;28;20172;-61
2023/06/25 12:45:30;;;;;;;3.63;3.10;;;29.70;42.70;;;;;;4995708;28;20322;-61
2023/06/25 12:47:56;;;;;;;3.23;2.50;;;29.80;43.00;;;;;;4995723;28;20164;-61
2023/06/25 12:50:21;;;;;;;2.63;2.43;;;29.90;43.00;;;;;;4996526;28;20185;-61
2023/06/25 12:52:47;;;;;;;2.80;2.60;;;29.90;42.80;;;;;;4994972;28;20172;-61
2023/06/25 12:55:13;;;;;;;3.57;2.93;;;29.90;42.70;;;;;;4995799;28;20200;-61
2023/06/25 12:57:38;;;;;;;3.47;2.83;;;29.80;42.70;;;;;;4995931;28;20172;-62
2023/06/25 13:00:05;;;;;;;2.80;2.60;;;29.70;43.30;;;;;;4994752;28;20266;-61
2023/06/25 13:02:34;;;;;;;3.20;2.87;;;29.70;43.30;;;;;;4995900;28;20554;-61
2023/06/25 13:05:02;;;;;;;2.97;2.63;;;29.70;43.30;;;;;;4995410;28;20534;-61
2023/06/25 13:07:28;;;;;;;3.10;2.80;;;29.70;43.30;;;;;;4995701;28;20758;-62
2023/06/25 13:09:53;;;;;;;4.27;3.10;;;29.70;44.20;;;;;;4996007;28;20418;-61
2023/06/25 13:12:19;;;;;;;3.10;2.43;;;29.80;45.00;;;;;;4995890;28;20182;-62
2023/06/25 13:14:44;;;;;;;3.27;3.03;;;30.00;45.10;;;;;;4994846;28;20224;-62
2023/06/25 13:17:11;;;;;;;2.80;2.57;;;30.10;44.30;;;;;;4995408;28;20215;-61
2023/06/25 13:19:38;;;;;;;2.17;2.07;;;30.20;43.20;;;;;;4995814;28;20303;-61
2023/06/25 13:22:04;;;;;;;3.43;2.50;;;30.30;43.20;;;;;;4995701;28;20418;-61
2023/06/25 13:24:30;;;;;;;3.07;2.20;;;30.30;42.70;;;;;;4995063;28;20467;-62
2023/06/25 13:26:56;;;;;;;3.73;3.03;;;30.40;43.20;;;;;;4995695;28;20211;-61
2023/06/25 13:29:21;;;;;;;2.90;2.70;;;30.30;42.80;;;;;;4995522;28;20172;-61
2023/06/25 13:31:47;;;;;;;3.23;2.93;;;30.30;42.80;;;;;;4995450;28;20207;-61
2023/06/25 13:34:12;;;;;;;3.23;2.93;;;30.20;43.40;;;;;;4995028;28;20266;-62
2023/06/25 13:36:38;;;;;;;4.43;3.10;;;30.20;43.40;;;;;;4995424;28;20526;-61
2023/06/25 13:39:03;;;;;;;3.23;2.77;;;30.20;42.90;;;;;;4995424;28;20207;-60
2023/06/25 13:41:29;;;;;;;2.47;2.27;;;30.10;43.10;;;;;;4994816;28;20653;-61
2023/06/25 13:43:55;;;;;;;2.50;2.30;;;30.10;43.60;;;;;;4994709;28;20211;-61
2023/06/25 13:46:21;;;;;;;2.70;2.43;;;30.10;43.80;;;;;;4994868;28;20202;-61
2023/06/25 13:48:46;;;;;;;2.93;2.57;;;30.10;43.90;;;;;;4995325;28;20167;-61
2023/06/25 13:51:12;;;;;;;3.30;3.07;;;30.20;44.40;;;;;;4995352;28;20645;-61
2023/06/25 13:53:37;;;;;;;3.20;3.00;;;30.20;43.40;;;;;;4994812;28;20226;-61
2023/06/25 13:56:03;;;;;;;2.77;2.43;;;30.10;43.00;;;;;;4994678;28;20664;-61
2023/06/25 13:58:29;;;;;;;3.93;2.53;;;30.00;43.50;;;;;;4994828;28;20176;-60
2023/06/25 14:00:54;;;;;;;3.23;2.73;;;29.90;43.30;;;;;;4994790;28;20237;-61
2023/06/25 14:03:21;;;;;;;3.10;2.80;;;29.80;43.40;;;;;;4994373;28;20275;-62
2023/06/25 14:05:47;;;;;;;2.83;2.63;;;29.80;44.10;;;;;;4994536;28;20238;-61
2023/06/25 14:08:13;;;;;;;3.43;2.90;;;29.80;43.70;;;;;;4993568;28;20951;-61
2023/06/25 14:10:38;;;;;;;2.13;1.90;;;29.90;43.30;;;;;;4994714;28;20510;-62
2023/06/25 14:13:04;;;;;;;3.63;3.20;;;29.90;43.20;;;;;;4994844;28;20241;-62
2023/06/25 14:15:30;;;;;;;2.77;2.40;;;29.90;43.70;;;;;;4994115;28;20199;-61
2023/06/25 14:17:56;;;;;;;2.60;2.40;;;29.90;43.80;;;;;;4994536;28;20183;-61
2023/06/25 14:20:21;;;;;;;2.67;2.47;;;29.90;43.30;;;;;;4994702;28;20206;-62
2023/06/25 14:22:47;;;;;;;2.77;2.33;;;29.90;43.10;;;;;;4994680;28;20502;-61
2023/06/25 14:25:13;;;;;;;2.80;2.60;;;29.80;43.80;;;;;;4993270;28;20701;-62
2023/06/25 14:27:39;;;;;;;2.83;2.63;;;29.90;44.00;;;;;;4994851;28;20382;-61
2023/06/25 14:30:05;;;;;;;3.47;3.00;;;29.90;44.10;;;;;;4994445;28;20257;-62
2023/06/25 14:32:31;;;;;;;3.17;2.90;;;30.00;43.80;;;;;;4993954;28;20274;-62
2023/06/25 14:34:57;;;;;;;3.10;2.90;;;30.00;44.50;;;;;;4994017;28;20438;-61
2023/06/25 14:37:22;;;;;;;3.30;3.00;;;30.00;43.60;;;;;;4994336;28;20736;-61
2023/06/25 14:39:48;;;;;;;2.90;2.37;;;30.00;43.80;;;;;;4994311;28;20167;-62
2023/06/25 14:42:13;;;;;;;4.30;3.50;;;30.00;43.90;;;;;;4994002;28;20175;-62
2023/06/25 14:44:39;;;;;;;3.50;3.20;;;30.00;43.80;;;;;;4993404;28;20682;-62
2023/06/25 14:47:05;;;;;;;3.10;2.80;;;30.00;43.80;;;;;;4994170;28;20183;-61
2023/06/25 14:49:30;;;;;;;3.00;2.67;;;29.90;44.00;;;;;;4994108;28;20180;-62
2023/06/25 14:51:56;;;;;;;3.27;2.97;;;29.90;43.70;;;;;;4994282;28;20195;-62
2023/06/25 14:54:21;;;;;;;3.97;3.60;;;29.80;43.90;;;;;;4993662;28;20190;-61
2023/06/25 14:56:47;;;;;;;3.40;2.90;;;29.80;43.60;;;;;;4993926;28;20182;-62
2023/06/25 14:59:12;;;;;;;3.20;2.77;;;29.70;43.70;;;;;;4993956;28;20178;-62
2023/06/25 15:01:38;;;;;;;2.67;2.47;;;29.70;44.00;;;;;;4993742;28;20182;-61
2023/06/25 15:04:04;;;;;;;3.53;3.20;;;29.70;44.00;;;;;;4992205;28;20297;-62
2023/06/25 15:06:29;;;;;;;3.93;3.50;;;29.80;43.40;;;;;;4994139;28;20194;-61
2023/06/25 15:08:55;;;;;;;3.23;2.70;;;29.80;43.20;;;;;;4992569;28;20183;-62
2023/06/25 15:11:20;;;;;;;3.73;2.67;;;29.80;43.30;;;;;;4993908;28;20175;-62
2023/06/25 15:13:46;;;;;;;3.20;2.80;;;29.80;43.30;;;;;;4993415;28;20637;-61
2023/06/25 15:16:11;;;;;;;3.43;3.03;;;29.80;43.40;;;;;;4993660;28;20238;-62
2023/06/25 15:18:37;;;;;;;3.50;2.70;;;29.80;42.60;;;;;;4993903;28;20175;-62
2023/06/25 15:21:03;;;;;;;3.30;3.00;;;29.80;42.80;;;;;;4994056;28;20238;-62
2023/06/25 15:23:28;;;;;;;3.13;2.90;;;29.80;43.10;;;;;;4993441;28;20207;-62
2023/06/25 15:25:54;;;;;;;3.87;3.03;;;29.80;43.40;;;;;;4993597;28;20202;-61
2023/06/25 15:28:20;;;;;;;4.60;3.17;;;29.80;44.10;;;;;;4993787;28;20207;-62
2023/06/25 15:30:45;;;;;;;2.60;2.40;;;29.90;44.00;;;;;;4993654;28;20234;-61
2023/06/25 15:33:11;;;;;;;2.67;2.47;;;30.00;43.40;;;;;;4993931;28;20684;-62
2023/06/25 15:35:36;;;;;;;3.33;3.03;;;29.90;43.40;;;;;;4994093;28;20270;-62
2023/06/25 15:38:10;;;;;;;4.30;3.27;;;29.90;43.50;;;;;;4997817;28;20180;-61
2023/06/25 15:40:36;;;;;;;3.47;3.10;;;29.90;43.80;;;;;;4998078;28;20183;-61
2023/06/25 15:43:01;;;;;;;5.47;2.90;;;29.90;44.40;;;;;;4997946;28;20743;-62
2023/06/25 15:45:27;;;;;;;4.70;2.57;;;29.90;43.90;;;;;;4997131;28;20223;-62
2023/06/25 15:47:52;;;;;;;3.70;3.40;;;29.90;43.50;;;;;;4997202;28;20266;-62
2023/06/25 15:50:18;;;;;;;2.60;2.33;;;29.80;43.70;;;;;;4997728;28;20199;-61
2023/06/25 15:52:43;;;;;;;3.40;2.90;;;29.80;43.40;;;;;;4997398;28;20175;-62
2023/06/25 15:55:09;;;;;;;2.93;2.63;;;29.80;44.30;;;;;;4997021;28;20206;-62
2023/06/25 15:57:35;;;;;;;2.83;2.57;;;29.80;43.40;;;;;;4997233;28;20211;-61
2023/06/25 16:00:00;;;;;;;3.20;2.80;;;29.80;43.40;;;;;;4996743;28;20242;-61
2023/06/25 16:02:26;;;;;;;3.33;3.03;;;29.80;43.40;;;;;;4997137;28;20179;-61
2023/06/25 16:04:51;;;;;;;3.70;3.30;;;29.80;43.20;;;;;;4996398;28;20290;-62
2023/06/25 16:07:17;;;;;;;3.23;2.93;;;29.80;43.10;;;;;;4997049;28;20198;-62
2023/06/25 16:09:42;;;;;;;3.27;2.97;;;29.80;42.90;;;;;;4997273;28;20187;-61
2023/06/25 16:12:08;;;;;;;3.00;2.80;;;29.70;42.80;;;;;;4997075;28;20180;-62
2023/06/25 16:14:34;;;;;;;4.53;2.77;;;29.70;42.80;;;;;;4996425;28;20318;-62
2023/06/25 16:16:59;;;;;;;3.70;2.77;;;29.70;42.70;;;;;;4997084;28;20704;-62
2023/06/25 16:19:25;;;;;;;3.17;2.40;;;29.60;42.60;;;;;;4996790;28;20707;-62
2023/06/25 16:21:50;;;;;;;3.37;2.90;;;29.60;43.20;;;;;;4996930;28;20302;-60
2023/06/25 16:24:16;;;;;;;2.97;2.73;;;29.60;43.40;;;;;;4996101;28;20202;-63
2023/06/25 16:26:42;;;;;;;2.90;2.70;;;29.60;42.60;;;;;;4996856;28;20649;-63
2023/06/25 16:29:07;;;;;;;4.13;2.67;;;29.50;42.50;;;;;;4996528;28;20178;-62
2023/06/25 16:31:33;;;;;;;2.80;2.17;;;29.50;42.60;;;;;;4996709;28;20171;-62
2023/06/25 16:33:59;;;;;;;2.77;2.57;;;29.40;42.40;;;;;;4996324;28;20538;-62
2023/06/25 16:36:24;;;;;;;3.23;2.80;;;29.40;42.60;;;;;;4996509;28;20231;-62
2023/06/25 16:38:50;;;;;;;3.03;2.63;;;29.30;42.60;;;;;;4996114;28;20246;-62
2023/06/25 16:41:15;;;;;;;2.47;2.27;;;29.30;43.70;;;;;;4996559;28;20176;-61
2023/06/25 16:43:41;;;;;;;2.53;2.33;;;29.20;43.80;;;;;;4995909;28;20229;-60
2023/06/25 16:46:06;;;;;;;3.23;2.93;;;29.20;43.60;;;;;;4996247;28;20651;-62